Time;durP1;ratioP1;P1;durP2;ratioP2;P2;SDS_P1;SDS_P2;PMS_P1;PMS_P2;Temp;Humidity;BMP_temperature;BMP_pressure;BME280_temperature;BME280_humidity;BME280_pressure;Samples;Min_cycle;Max_cycle;Signal;HPM_P1;HPM_P2
2023/08/29 00:00:33;;;;;;;0.68;0.55;;;;;;;17.48;85.01;100451.53;4937961;29;20047;-68
2023/08/29 00:03:03;;;;;;;0.60;0.60;;;;;;;17.54;84.68;100447.97;4952743;29;20039;-67
2023/08/29 00:05:29;;;;;;;0.55;0.55;;;;;;;17.28;85.19;100439.69;4953221;29;20090;-68
2023/08/29 00:07:54;;;;;;;1.23;0.80;;;;;;;17.35;85.49;100436.88;4952577;29;20043;-67
2023/08/29 00:10:20;;;;;;;3.72;0.70;;;;;;;17.40;85.43;100437.22;4953890;29;20043;-68
2023/08/29 00:12:45;;;;;;;0.90;0.55;;;;;;;17.41;84.67;100427.88;4947825;28;20518;-67
2023/08/29 00:15:10;;;;;;;0.98;0.90;;;;;;;17.35;84.77;100437.66;5012230;28;20083;-67
2023/08/29 00:17:36;;;;;;;1.10;0.80;;;;;;;17.28;84.77;100428.81;4995833;28;20057;-65
2023/08/29 00:20:02;;;;;;;0.65;0.65;;;;;;;17.07;85.50;100424.38;4996068;28;20033;-67
2023/08/29 00:22:28;;;;;;;0.80;0.60;;;;;;;17.04;86.18;100433.31;5004539;28;20053;-62
2023/08/29 00:24:54;;;;;;;0.93;0.65;;;;;;;17.08;85.86;100428.63;5001145;28;20031;-67
2023/08/29 00:27:20;;;;;;;1.98;0.80;;;;;;;16.92;86.32;100428.38;5011606;28;20030;-67
2023/08/29 00:29:46;;;;;;;0.82;0.70;;;;;;;16.95;86.88;100424.88;5008530;28;20037;-67
2023/08/29 00:32:11;;;;;;;1.05;0.65;;;;;;;17.04;86.91;100419.72;5009426;28;20041;-68
2023/08/29 00:34:37;;;;;;;0.95;0.70;;;;;;;17.09;86.34;100416.56;4981297;28;20034;-66
2023/08/29 00:37:03;;;;;;;0.40;0.40;;;;;;;17.05;86.64;100424.00;5001757;28;20033;-66
2023/08/29 00:39:29;;;;;;;0.90;0.70;;;;;;;17.05;86.69;100418.56;5013215;28;20033;-66
2023/08/29 00:41:54;;;;;;;0.70;0.63;;;;;;;17.06;86.01;100411.91;4988989;28;20103;-66
2023/08/29 00:44:21;;;;;;;1.27;1.00;;;;;;;17.12;86.20;100407.59;4979560;28;20096;-67
2023/08/29 00:46:46;;;;;;;7.03;0.93;;;;;;;17.11;86.11;100406.06;4992746;28;20053;-68
2023/08/29 00:49:15;;;;;;;1.00;0.65;;;;;;;17.07;85.62;100402.59;4992203;28;20488;-65
2023/08/29 00:51:41;;;;;;;0.93;0.68;;;;;;;17.00;86.26;100397.22;5003755;28;20665;-66
2023/08/29 00:54:08;;;;;;;2.05;0.82;;;;;;;17.03;86.16;100399.88;4994381;28;20554;-67
2023/08/29 00:56:38;;;;;;;1.15;0.70;;;;;;;16.83;86.10;100395.44;5010634;28;20122;-67
2023/08/29 00:59:04;;;;;;;1.95;1.02;;;;;;;16.84;86.76;100394.28;5009865;28;20394;-66
2023/08/29 01:01:31;;;;;;;0.85;0.68;;;;;;;16.91;86.76;100408.59;5001583;28;20117;-66
2023/08/29 01:03:59;;;;;;;2.03;0.88;;;;;;;16.97;86.55;100401.53;4979945;28;20034;-67
2023/08/29 01:06:25;;;;;;;0.70;0.50;;;;;;;16.99;86.21;100407.31;5005318;28;20402;-67
2023/08/29 01:08:51;;;;;;;2.13;1.10;;;;;;;16.95;86.21;100413.97;5011130;28;20038;-67
2023/08/29 01:11:41;;;;;;;1.40;0.80;;;;;;;16.83;86.24;100428.06;4995536;28;20036;-68
2023/08/29 01:14:13;;;;;;;0.80;0.60;;;;;;;16.85;86.40;100425.72;4995251;28;20372;-67
2023/08/29 01:16:48;;;;;;;2.28;0.63;;;;;;;16.83;86.38;100426.13;4994857;28;20033;-67
2023/08/29 01:19:20;;;;;;;1.00;0.70;;;;;;;16.83;86.53;100431.59;5007708;28;20459;-67
2023/08/29 01:21:55;;;;;;;0.73;0.63;;;;;;;16.79;86.40;100435.50;5007358;28;20030;-67
2023/08/29 01:24:38;;;;;;;1.52;1.00;;;;;;;16.76;86.65;100426.19;5007645;28;20026;-67
2023/08/29 01:27:04;;;;;;;0.50;0.50;;;;;;;16.74;86.46;100414.19;5007851;28;20406;-67
2023/08/29 01:29:31;;;;;;;1.67;1.00;;;;;;;16.72;86.94;100419.25;5010583;28;20038;-68
2023/08/29 01:31:59;;;;;;;0.98;0.77;;;;;;;16.73;86.46;100423.50;4975174;28;20030;-67
2023/08/29 01:34:25;;;;;;;0.68;0.68;;;;;;;16.77;86.13;100429.69;5010514;28;20026;-67
2023/08/29 01:36:50;;;;;;;0.55;0.47;;;;;;;16.67;87.08;100423.16;5006238;28;20041;-68
2023/08/29 01:39:16;;;;;;;1.55;1.00;;;;;;;16.70;86.38;100435.19;5000549;28;20410;-67
2023/08/29 01:41:41;;;;;;;1.30;0.90;;;;;;;16.52;87.13;100431.81;5001257;28;20550;-68
2023/08/29 01:44:07;;;;;;;1.40;0.95;;;;;;;16.48;87.52;100434.56;5007366;28;20040;-67
2023/08/29 01:46:33;;;;;;;1.40;0.63;;;;;;;16.52;87.34;100431.81;4995020;28;20083;-68
2023/08/29 01:49:01;;;;;;;1.35;1.00;;;;;;;16.40;87.67;100440.41;4986016;28;20399;-67
2023/08/29 01:51:27;;;;;;;1.30;0.73;;;;;;;16.32;87.89;100441.66;4986060;28;20037;-66
2023/08/29 01:53:53;;;;;;;1.00;0.90;;;;;;;16.21;88.36;100436.28;5005777;28;20378;-69
2023/08/29 01:56:22;;;;;;;0.88;0.73;;;;;;;16.08;89.28;100435.19;4992425;28;20089;-67
2023/08/29 01:58:48;;;;;;;4.47;0.88;;;;;;;16.08;89.39;100443.34;5004267;28;20037;-67
2023/08/29 02:01:14;;;;;;;1.95;1.08;;;;;;;16.19;89.60;100449.50;4991667;28;20491;-66
2023/08/29 02:03:40;;;;;;;0.50;0.50;;;;;;;16.22;88.93;100438.59;5009986;28;20026;-66
2023/08/29 02:06:05;;;;;;;3.60;1.15;;;;;;;16.13;88.16;100432.84;4994643;28;20160;-66
2023/08/29 02:08:31;;;;;;;1.23;0.95;;;;;;;16.11;88.93;100446.06;5002657;28;20040;-66
2023/08/29 02:10:57;;;;;;;1.25;1.00;;;;;;;16.18;88.85;100440.56;5005156;28;20038;-66
2023/08/29 02:13:22;;;;;;;1.55;1.00;;;;;;;16.22;88.03;100441.31;5006353;28;20494;-67
2023/08/29 02:15:48;;;;;;;1.02;0.75;;;;;;;16.26;88.15;100447.50;4999843;28;20038;-68
2023/08/29 02:18:13;;;;;;;1.27;0.93;;;;;;;16.32;88.00;100449.81;5003323;28;20022;-67
2023/08/29 02:20:38;;;;;;;1.38;0.77;;;;;;;16.27;87.13;100437.41;5011550;28;20406;-66
2023/08/29 02:23:04;;;;;;;1.80;1.02;;;;;;;16.21;87.18;100447.94;5003986;28;20038;-67
2023/08/29 02:25:30;;;;;;;1.27;0.77;;;;;;;16.25;86.94;100445.97;5007158;28;20030;-67
2023/08/29 02:27:55;;;;;;;0.80;0.80;;;;;;;16.25;86.99;100450.63;5009946;28;20023;-67
2023/08/29 02:30:22;;;;;;;5.63;1.17;;;;;;;16.14;86.46;100441.78;4991176;28;20030;-67
2023/08/29 02:32:47;;;;;;;0.75;0.75;;;;;;;15.98;87.64;100439.53;5008733;28;20095;-68
2023/08/29 02:35:13;;;;;;;1.55;1.15;;;;;;;16.04;87.52;100448.81;5011021;28;20124;-68
2023/08/29 02:37:39;;;;;;;0.98;0.85;;;;;;;15.98;87.66;100446.91;5002559;28;20038;-67
2023/08/29 02:40:07;;;;;;;1.60;1.15;;;;;;;15.99;87.77;100449.22;5010123;28;20379;-67
2023/08/29 02:42:33;;;;;;;1.60;1.10;;;;;;;16.04;87.67;100465.13;4988727;28;20034;-66
2023/08/29 02:44:58;;;;;;;0.93;0.70;;;;;;;16.11;87.36;100453.41;5008851;28;20030;-67
2023/08/29 02:47:24;;;;;;;1.95;1.00;;;;;;;16.06;87.16;100457.34;5005118;28;20033;-67
2023/08/29 02:49:49;;;;;;;2.25;0.95;;;;;;;16.04;87.23;100456.97;5010408;28;20030;-66
2023/08/29 02:52:14;;;;;;;2.05;1.10;;;;;;;16.03;86.59;100460.06;5010384;28;20047;-67
2023/08/29 02:54:40;;;;;;;1.13;0.73;;;;;;;15.86;87.14;100453.56;5011341;28;20038;-67
2023/08/29 02:57:05;;;;;;;1.25;0.75;;;;;;;15.87;87.83;100457.03;4998160;28;20031;-66
2023/08/29 02:59:31;;;;;;;1.00;0.68;;;;;;;15.93;88.02;100452.75;5004816;28;20406;-66
2023/08/29 03:01:57;;;;;;;1.30;0.70;;;;;;;15.93;87.75;100448.06;4993137;28;20037;-68
2023/08/29 03:04:23;;;;;;;1.20;1.02;;;;;;;16.00;87.47;100450.00;5011062;28;20372;-66
2023/08/29 03:06:51;;;;;;;2.50;1.17;;;;;;;15.92;87.12;100432.97;4992948;28;20040;-67
2023/08/29 03:09:17;;;;;;;1.52;1.10;;;;;;;15.88;87.79;100439.56;4993935;28;20029;-66
2023/08/29 03:11:42;;;;;;;1.48;0.77;;;;;;;15.83;88.10;100437.28;4993497;28;20398;-67
2023/08/29 03:14:09;;;;;;;1.08;0.73;;;;;;;15.86;88.18;100437.25;4989290;28;20035;-67
2023/08/29 03:16:34;;;;;;;2.05;1.25;;;;;;;15.94;88.32;100435.28;5007283;28;20486;-66
2023/08/29 03:19:00;;;;;;;1.35;0.90;;;;;;;16.00;88.06;100426.31;4989509;28;20021;-66
2023/08/29 03:21:26;;;;;;;1.63;1.02;;;;;;;16.00;87.92;100423.59;4990263;28;20133;-65
2023/08/29 03:23:52;;;;;;;1.92;1.10;;;;;;;16.01;87.71;100414.28;5005163;28;20105;-64
2023/08/29 03:26:18;;;;;;;1.38;0.90;;;;;;;16.01;88.04;100416.22;4991496;28;20033;-67
2023/08/29 03:28:45;;;;;;;2.17;1.30;;;;;;;16.03;88.00;100422.81;5008744;28;20025;-67
2023/08/29 03:31:15;;;;;;;1.23;0.75;;;;;;;16.02;88.02;100423.22;4993471;28;20030;-66
2023/08/29 03:33:42;;;;;;;2.97;1.38;;;;;;;16.05;87.86;100425.91;5007820;28;20038;-66
2023/08/29 03:36:08;;;;;;;1.95;1.20;;;;;;;16.01;88.37;100408.84;5009733;28;20026;-67
2023/08/29 03:38:43;;;;;;;1.25;1.05;;;;;;;16.03;88.21;100411.16;4988204;28;20014;-67
2023/08/29 03:41:08;;;;;;;1.48;1.05;;;;;;;15.98;87.97;100408.88;5003449;28;20380;-67
2023/08/29 03:43:36;;;;;;;1.15;0.88;;;;;;;15.93;88.05;100417.44;4992320;28;20041;-67
2023/08/29 03:46:04;;;;;;;3.63;1.60;;;;;;;15.85;88.16;100416.69;4993178;28;20372;-66
2023/08/29 03:48:30;;;;;;;1.63;1.42;;;;;;;15.83;88.49;100420.97;4989381;28;20022;-68
2023/08/29 03:50:58;;;;;;;2.47;1.23;;;;;;;15.87;88.49;100414.34;5001053;28;20081;-67
2023/08/29 03:53:24;;;;;;;3.03;1.30;;;;;;;15.87;88.58;100408.91;5006807;28;20038;-65
2023/08/29 03:55:50;;;;;;;1.48;1.17;;;;;;;15.87;88.30;100406.19;4993338;28;20065;-67
2023/08/29 03:58:16;;;;;;;1.55;1.05;;;;;;;15.87;88.49;100398.03;4989368;28;20033;-67
2023/08/29 04:00:42;;;;;;;1.50;1.08;;;;;;;15.90;88.48;100399.22;4977396;28;20038;-66
2023/08/29 04:03:11;;;;;;;2.10;1.67;;;;;;;15.86;88.58;100391.09;4993999;28;20049;-68
2023/08/29 04:05:37;;;;;;;1.90;1.10;;;;;;;15.87;88.64;100384.47;5004244;28;20061;-68
2023/08/29 04:08:06;;;;;;;2.22;1.40;;;;;;;15.87;88.64;100386.44;4992890;28;20029;-66
2023/08/29 04:10:41;;;;;;;1.38;1.20;;;;;;;15.86;88.79;100385.66;4993118;28;20116;-67
2023/08/29 04:13:10;;;;;;;2.15;1.10;;;;;;;15.84;89.21;100389.94;5008818;28;20030;-67
2023/08/29 04:15:36;;;;;;;2.58;1.42;;;;;;;15.81;89.32;100383.38;5010342;28;20088;-68
2023/08/29 04:18:03;;;;;;;2.55;1.48;;;;;;;15.83;88.84;100383.72;4985135;28;20049;-67
2023/08/29 04:20:30;;;;;;;1.52;1.20;;;;;;;15.82;89.04;100376.75;5000811;28;20076;-66
2023/08/29 04:22:55;;;;;;;2.20;1.38;;;;;;;15.80;88.86;100368.22;4987699;28;20502;-66
2023/08/29 04:25:21;;;;;;;1.50;1.17;;;;;;;15.74;89.24;100372.53;5010764;28;20069;-67
2023/08/29 04:27:48;;;;;;;3.53;1.65;;;;;;;15.65;89.53;100368.69;4992621;28;20041;-67
2023/08/29 04:30:14;;;;;;;1.55;1.10;;;;;;;15.62;90.43;100366.78;4993102;28;20038;-67
2023/08/29 04:32:39;;;;;;;1.00;0.93;;;;;;;15.54;90.48;100367.97;4981016;28;20171;-67
2023/08/29 04:35:08;;;;;;;2.97;1.38;;;;;;;15.55;90.54;100364.09;4991290;28;20490;-66
2023/08/29 04:37:34;;;;;;;2.17;1.30;;;;;;;15.59;91.10;100367.56;4984387;28;20502;-66
2023/08/29 04:40:00;;;;;;;1.90;1.27;;;;;;;15.66;90.62;100362.13;4993685;28;20025;-67
2023/08/29 04:42:26;;;;;;;2.63;1.42;;;;;;;15.69;90.72;100364.81;5010710;28;20510;-65
2023/08/29 04:44:54;;;;;;;2.42;1.10;;;;;;;15.67;90.41;100361.72;4996415;28;20068;-65
2023/08/29 04:47:20;;;;;;;1.65;0.98;;;;;;;15.69;90.76;100359.38;5013424;28;20054;-65
2023/08/29 04:49:46;;;;;;;2.00;1.35;;;;;;;15.67;90.55;100350.06;4998954;28;20112;-65
2023/08/29 04:52:11;;;;;;;2.20;1.33;;;;;;;15.49;91.34;100350.16;5009515;28;20125;-65
2023/08/29 04:54:37;;;;;;;1.60;1.40;;;;;;;15.44;92.26;100353.28;5001604;28;20032;-65
2023/08/29 04:57:04;;;;;;;1.63;1.20;;;;;;;15.44;92.20;100361.44;4988993;28;20061;-66
2023/08/29 04:59:32;;;;;;;2.03;1.25;;;;;;;15.51;92.51;100355.97;4995403;28;20559;-65
2023/08/29 05:01:59;;;;;;;1.48;0.90;;;;;;;15.61;91.95;100360.56;4995571;28;20634;-65
2023/08/29 05:04:24;;;;;;;3.10;1.50;;;;;;;15.63;91.92;100368.31;4996047;28;20014;-66
2023/08/29 05:06:50;;;;;;;3.30;1.23;;;;;;;15.61;92.49;100363.28;5013068;28;20045;-65
2023/08/29 05:09:17;;;;;;;1.13;0.93;;;;;;;15.72;92.30;100368.66;4994352;28;20040;-65
2023/08/29 05:12:03;;;;;;;2.00;1.33;;;;;;;15.76;92.33;100356.59;4972611;28;21239;-66
2023/08/29 05:14:29;;;;;;;1.10;0.98;;;;;;;15.86;92.04;100352.28;4954628;28;20051;-66
2023/08/29 05:16:54;;;;;;;2.80;1.52;;;;;;;15.89;91.58;100346.81;4951815;28;20054;-65
2023/08/29 05:19:20;;;;;;;3.08;1.88;;;;;;;15.86;91.79;100344.13;4947839;28;20419;-65
2023/08/29 05:21:46;;;;;;;3.28;1.52;;;;;;;15.85;92.54;100353.47;4945719;28;20100;-65
2023/08/29 05:24:11;;;;;;;3.17;1.25;;;;;;;15.94;92.15;100349.13;4944405;28;20496;-65
2023/08/29 05:26:37;;;;;;;2.60;1.75;;;;;;;15.96;92.61;100346.78;4944570;28;20082;-65
2023/08/29 05:29:02;;;;;;;1.50;1.35;;;;;;;16.03;92.52;100349.44;4944087;28;20578;-65
2023/08/29 05:31:29;;;;;;;2.40;1.30;;;;;;;16.09;93.15;100355.22;4936991;28;20039;-65
2023/08/29 05:33:55;;;;;;;3.10;1.42;;;;;;;16.16;92.77;100344.31;4909886;28;1152487;-65
2023/08/29 05:36:23;;;;;;;2.08;1.30;;;;;;;16.18;92.71;100344.69;4935731;28;20164;-66
2023/08/29 05:38:48;;;;;;;2.22;1.45;;;;;;;16.22;92.64;100348.13;4963844;28;20054;-65
2023/08/29 05:41:14;;;;;;;2.17;1.23;;;;;;;16.26;92.46;100351.59;4954048;28;20042;-65
2023/08/29 05:43:40;;;;;;;2.83;1.50;;;;;;;16.30;93.00;100354.31;4951162;28;20062;-65
2023/08/29 05:46:06;;;;;;;2.30;1.48;;;;;;;16.30;92.69;100360.50;4948891;28;20039;-65
2023/08/29 05:48:32;;;;;;;1.92;1.35;;;;;;;16.16;93.82;100369.53;4951742;28;20070;-65
2023/08/29 05:50:57;;;;;;;2.35;1.38;;;;;;;16.26;93.60;100367.91;4966339;28;20112;-65
2023/08/29 05:53:23;;;;;;;1.77;1.40;;;;;;;16.35;93.61;100357.38;5019137;28;20112;-65
2023/08/29 05:55:48;;;;;;;2.40;1.30;;;;;;;16.43;93.28;100361.59;5011650;28;20084;-65
2023/08/29 05:58:14;;;;;;;2.10;1.65;;;;;;;16.47;93.48;100358.84;5012629;28;20467;-65
2023/08/29 06:00:39;;;;;;;2.58;1.60;;;;;;;16.44;93.59;100362.34;5011017;28;20526;-65
2023/08/29 06:03:07;;;;;;;2.03;1.23;;;;;;;16.49;93.89;100362.72;5003769;28;20045;-65
2023/08/29 06:05:32;;;;;;;4.25;1.52;;;;;;;16.54;93.79;100364.22;4987562;28;20044;-65
2023/08/29 06:08:01;;;;;;;1.77;1.20;;;;;;;16.61;93.44;100359.50;5011750;28;20025;-65
2023/08/29 06:10:26;;;;;;;3.30;1.13;;;;;;;16.68;93.37;100362.16;5012346;28;20038;-65
2023/08/29 06:12:52;;;;;;;2.88;1.27;;;;;;;16.76;93.04;100362.88;4993165;28;20036;-65
2023/08/29 06:15:17;;;;;;;2.88;1.50;;;;;;;16.80;93.45;100371.78;5012410;28;20065;-65
2023/08/29 06:17:43;;;;;;;1.92;1.60;;;;;;;16.81;92.99;100373.31;4991144;28;20526;-65
2023/08/29 06:20:11;;;;;;;2.67;1.50;;;;;;;16.87;93.44;100368.97;4999981;28;20064;-65
2023/08/29 06:22:37;;;;;;;8.95;1.63;;;;;;;16.91;92.91;100362.34;5009369;28;20045;-65
2023/08/29 06:25:04;;;;;;;2.47;1.65;;;;;;;16.96;92.61;100363.81;4994241;28;20088;-65
2023/08/29 06:27:29;;;;;;;2.05;1.42;;;;;;;17.00;92.48;100362.63;5010446;28;20022;-65
2023/08/29 06:29:55;;;;;;;3.03;1.70;;;;;;;16.97;92.87;100358.00;5010827;28;20048;-65
2023/08/29 06:32:21;;;;;;;3.05;1.75;;;;;;;16.99;92.27;100371.94;4992924;28;20034;-65
2023/08/29 06:34:46;;;;;;;1.55;1.33;;;;;;;16.98;92.64;100373.13;5011191;28;20052;-65
2023/08/29 06:37:15;;;;;;;2.08;1.13;;;;;;;17.02;92.04;100379.31;4992924;28;20057;-65
2023/08/29 06:39:42;;;;;;;1.92;1.27;;;;;;;17.07;91.99;100383.53;4999574;28;20030;-66
2023/08/29 06:42:08;;;;;;;2.30;1.40;;;;;;;17.14;92.29;100364.41;5003744;28;20104;-67
2023/08/29 06:44:33;;;;;;;2.60;1.55;;;;;;;17.20;92.37;100370.97;4994095;28;20022;-65
2023/08/29 06:46:58;;;;;;;2.58;1.50;;;;;;;17.25;92.28;100364.31;5011018;28;20811;-65
2023/08/29 06:49:25;;;;;;;2.03;1.23;;;;;;;17.29;92.35;100368.50;4999891;28;20041;-65
2023/08/29 06:51:50;;;;;;;2.70;1.52;;;;;;;17.33;92.29;100371.97;4986866;28;20045;-65
2023/08/29 06:54:36;;;;;;;2.67;1.77;;;;;;;17.42;92.35;100374.97;5010959;28;20229;-66
2023/08/29 06:57:01;;;;;;;4.40;1.80;;;;;;;17.53;91.78;100370.19;4928200;29;20421;-65
2023/08/29 06:59:27;;;;;;;4.10;1.70;;;;;;;17.60;91.60;100372.03;4932802;29;20055;-66
2023/08/29 07:01:52;;;;;;;3.30;1.85;;;;;;;17.59;91.69;100373.25;4923015;29;20039;-65
2023/08/29 07:04:18;;;;;;;2.65;1.45;;;;;;;17.64;91.54;100370.81;4911408;29;20039;-65
2023/08/29 07:06:43;;;;;;;4.13;1.83;;;;;;;17.70;91.38;100368.41;4931319;29;20031;-66
2023/08/29 07:09:09;;;;;;;4.65;1.50;;;;;;;17.78;91.71;100378.81;4919342;29;20079;-65
2023/08/29 07:11:34;;;;;;;2.88;1.60;;;;;;;17.86;90.91;100376.78;4937012;29;20433;-65
2023/08/29 07:13:59;;;;;;;2.65;1.48;;;;;;;17.94;90.97;100368.06;4930319;29;20417;-65
2023/08/29 07:16:25;;;;;;;2.22;1.30;;;;;;;18.01;91.02;100370.69;4931304;29;20079;-65
2023/08/29 07:18:51;;;;;;;2.50;1.23;;;;;;;18.04;90.66;100369.09;4936212;29;20130;-65
2023/08/29 07:21:16;;;;;;;3.40;1.73;;;;;;;18.08;90.35;100378.00;4932231;29;20035;-65
2023/08/29 07:23:41;;;;;;;3.00;1.70;;;;;;;18.13;90.55;100379.50;4930680;29;20536;-65
2023/08/29 07:26:08;;;;;;;4.22;1.65;;;;;;;18.14;90.69;100376.34;4931044;29;20502;-65
2023/08/29 07:28:33;;;;;;;2.55;1.30;;;;;;;18.14;90.24;100387.25;4931356;29;20114;-65
2023/08/29 07:30:59;;;;;;;6.05;1.35;;;;;;;18.20;90.68;100388.31;4931396;29;20079;-66
2023/08/29 07:33:24;;;;;;;1.75;1.17;;;;;;;18.24;90.57;100385.53;4952446;28;20441;-66
2023/08/29 07:35:50;;;;;;;2.00;1.42;;;;;;;18.29;90.62;100379.63;4989696;28;20038;-66
2023/08/29 07:38:17;;;;;;;2.47;1.40;;;;;;;18.32;91.00;100376.84;5009781;28;20030;-65
2023/08/29 07:40:46;;;;;;;2.35;1.33;;;;;;;18.38;90.68;100374.41;5011168;28;20640;-65
2023/08/29 07:43:12;;;;;;;3.35;1.33;;;;;;;18.41;90.60;100381.75;5009599;28;20397;-65
2023/08/29 07:45:37;;;;;;;2.60;1.90;;;;;;;18.46;90.26;100381.34;5010629;28;20501;-65
2023/08/29 07:48:03;;;;;;;1.15;0.82;;;;;;;18.48;90.57;100387.16;5010828;28;20026;-65
2023/08/29 07:50:29;;;;;;;4.35;1.60;;;;;;;18.53;90.21;100386.66;5003138;28;20042;-65
2023/08/29 07:52:54;;;;;;;3.55;1.45;;;;;;;18.56;90.32;100380.41;4989144;28;20046;-65
2023/08/29 07:55:22;;;;;;;1.77;1.20;;;;;;;18.58;89.96;100386.97;4993017;28;20088;-66
2023/08/29 07:57:48;;;;;;;2.33;1.35;;;;;;;18.59;90.39;100390.47;5011056;28;20030;-66
2023/08/29 08:00:15;;;;;;;2.78;1.42;;;;;;;18.56;90.66;100389.31;5009004;28;20083;-65
2023/08/29 08:02:41;;;;;;;3.08;1.35;;;;;;;18.62;90.71;100397.84;4991343;28;20107;-66
2023/08/29 08:05:11;;;;;;;2.85;1.35;;;;;;;18.65;90.67;100399.72;5008866;28;20546;-65
2023/08/29 08:07:42;;;;;;;1.90;1.00;;;;;;;18.63;90.86;100404.81;5010886;28;20367;-65
2023/08/29 08:10:08;;;;;;;2.03;1.10;;;;;;;18.64;90.70;100398.94;5011351;28;20054;-65
2023/08/29 08:12:35;;;;;;;1.20;0.65;;;;;;;18.68;90.90;100398.88;5013654;28;20041;-66
2023/08/29 08:15:04;;;;;;;1.77;1.23;;;;;;;18.76;90.72;100392.13;5011133;28;20038;-65
2023/08/29 08:17:30;;;;;;;2.78;1.10;;;;;;;18.80;90.78;100396.34;4978416;28;20096;-65
2023/08/29 08:19:56;;;;;;;1.52;0.90;;;;;;;18.80;91.13;100398.28;5009172;28;20505;-65
2023/08/29 08:22:22;;;;;;;2.13;1.33;;;;;;;18.78;90.96;100392.47;5009793;28;20042;-66
2023/08/29 08:24:47;;;;;;;0.77;0.70;;;;;;;18.74;91.24;100391.75;4995371;28;20022;-65
2023/08/29 08:27:13;;;;;;;0.88;0.85;;;;;;;18.78;91.22;100390.53;5014194;28;20042;-65
2023/08/29 08:29:38;;;;;;;6.03;1.13;;;;;;;18.80;91.46;100390.09;5014450;28;20036;-65
2023/08/29 08:32:04;;;;;;;2.28;1.15;;;;;;;18.81;91.57;100397.13;5012967;28;20042;-66
2023/08/29 08:34:29;;;;;;;2.08;1.25;;;;;;;18.82;91.56;100402.16;5013868;28;20040;-65
2023/08/29 08:36:55;;;;;;;1.20;0.88;;;;;;;18.80;91.51;100401.78;5013750;28;20033;-65
2023/08/29 08:39:21;;;;;;;1.60;1.13;;;;;;;18.86;91.63;100411.03;5013689;28;20042;-65
2023/08/29 08:41:47;;;;;;;2.35;1.00;;;;;;;18.89;91.83;100404.75;5013701;28;20168;-65
2023/08/29 08:44:17;;;;;;;0.85;0.77;;;;;;;18.92;91.76;100420.31;5011034;28;20078;-65
2023/08/29 08:46:43;;;;;;;1.13;1.02;;;;;;;18.95;91.86;100410.50;5008808;28;20034;-65
2023/08/29 08:49:10;;;;;;;2.47;1.10;;;;;;;18.97;91.78;100426.47;4990526;28;20525;-65
2023/08/29 08:51:37;;;;;;;1.50;1.10;;;;;;;18.97;91.69;100410.84;5013945;28;20060;-65
2023/08/29 08:54:04;;;;;;;4.75;1.20;;;;;;;19.00;91.95;100423.69;5011638;28;20125;-66
2023/08/29 08:56:30;;;;;;;1.50;1.05;;;;;;;19.03;91.84;100428.28;5004400;28;20057;-65
2023/08/29 08:58:55;;;;;;;1.48;0.95;;;;;;;19.05;91.70;100433.34;4990241;28;20049;-65
2023/08/29 09:01:21;;;;;;;2.25;1.00;;;;;;;19.06;91.18;100435.66;5009703;28;20073;-65
2023/08/29 09:03:46;;;;;;;0.95;0.82;;;;;;;19.07;91.36;100426.28;5012240;28;20042;-65
2023/08/29 09:06:14;;;;;;;1.00;0.80;;;;;;;19.16;91.33;100428.47;5013033;28;20033;-65
2023/08/29 09:08:40;;;;;;;1.35;1.00;;;;;;;19.21;91.13;100426.00;5013675;28;20051;-65
2023/08/29 09:11:06;;;;;;;1.90;1.08;;;;;;;19.29;90.84;100432.13;5003378;28;20120;-65
2023/08/29 09:13:31;;;;;;;1.65;1.17;;;;;;;19.33;91.24;100438.31;5004977;28;20037;-65
2023/08/29 09:16:01;;;;;;;1.63;1.00;;;;;;;19.45;91.17;100424.78;5013301;28;20034;-65
2023/08/29 09:18:31;;;;;;;1.35;1.13;;;;;;;19.51;90.95;100428.56;5013469;28;20368;-65
2023/08/29 09:21:00;;;;;;;5.80;1.10;;;;;;;19.60;90.69;100428.78;5012437;28;20063;-65
2023/08/29 09:23:36;;;;;;;2.58;1.40;;;;;;;19.77;90.33;100426.88;4999553;28;20080;-66
2023/08/29 09:26:01;;;;;;;1.67;1.20;;;;;;;19.86;89.86;100429.81;5007869;28;20394;-66
2023/08/29 09:28:29;;;;;;;1.83;1.20;;;;;;;19.92;89.09;100421.91;4979192;28;20113;-65
2023/08/29 09:31:05;;;;;;;2.17;1.25;;;;;;;19.97;88.72;100421.38;5013245;28;20038;-65
2023/08/29 09:33:32;;;;;;;1.25;0.82;;;;;;;20.15;88.20;100432.72;4993247;28;20115;-65
2023/08/29 09:36:00;;;;;;;1.38;1.00;;;;;;;20.28;87.96;100430.88;4994993;28;20089;-65
2023/08/29 09:38:28;;;;;;;1.20;0.93;;;;;;;20.44;87.61;100430.91;5012867;28;20394;-65
2023/08/29 09:40:55;;;;;;;1.38;0.98;;;;;;;20.49;86.89;100420.22;5012570;28;20398;-65
2023/08/29 09:43:20;;;;;;;2.65;0.93;;;;;;;20.63;86.26;100422.56;4994464;28;20038;-65
2023/08/29 09:45:50;;;;;;;0.73;0.70;;;;;;;20.80;85.54;100426.09;5009497;28;20041;-65
2023/08/29 09:48:17;;;;;;;1.15;0.80;;;;;;;21.00;84.63;100421.25;5005318;28;20069;-65
2023/08/29 09:50:44;;;;;;;2.47;0.75;;;;;;;21.10;82.57;100422.97;5001205;28;20111;-65
2023/08/29 09:53:19;;;;;;;0.77;0.60;;;;;;;21.18;81.33;100427.06;5002467;28;20041;-66
2023/08/29 09:56:08;;;;;;;0.73;0.65;;;;;;;21.24;80.14;100425.34;4994117;28;20034;-66
2023/08/29 09:58:37;;;;;;;1.35;0.40;;;;;;;21.35;79.65;100425.81;5012655;28;20040;-65
2023/08/29 10:01:05;;;;;;;1.10;0.45;;;;;;;21.30;77.43;100422.84;5012317;28;20022;-65
2023/08/29 10:03:31;;;;;;;2.83;0.40;;;;;;;21.29;77.77;100419.31;5011140;28;20445;-65
2023/08/29 10:06:05;;;;;;;3.17;0.60;;;;;;;21.37;77.74;100420.66;5012609;28;20024;-65
2023/08/29 10:08:38;;;;;;;2.15;0.50;;;;;;;21.39;77.91;100420.22;4994958;28;20030;-65
2023/08/29 10:11:04;;;;;;;0.47;0.40;;;;;;;21.37;78.26;100417.94;4978170;28;20033;-66
2023/08/29 10:13:30;;;;;;;2.55;0.40;;;;;;;21.40;77.60;100416.31;5005205;28;20044;-65
2023/08/29 10:15:57;;;;;;;0.20;0.20;;;;;;;21.44;77.49;100422.47;5000078;28;20031;-65
2023/08/29 10:18:23;;;;;;;0.63;0.35;;;;;;;21.48;76.35;100409.41;5009265;28;20033;-66
2023/08/29 10:20:49;;;;;;;1.65;0.40;;;;;;;21.73;76.37;100416.94;4994902;28;20038;-65
2023/08/29 10:23:15;;;;;;;0.38;0.28;;;;;;;22.00;76.25;100414.56;5003458;28;20699;-65
2023/08/29 10:25:41;;;;;;;1.23;0.73;;;;;;;22.16;74.43;100403.50;5007930;28;20467;-65
2023/08/29 10:28:10;;;;;;;0.22;0.20;;;;;;;22.38;74.37;100407.88;5012186;28;20109;-65
2023/08/29 10:30:39;;;;;;;0.50;0.40;;;;;;;22.49;72.44;100399.31;5011918;28;20120;-65
2023/08/29 10:33:06;;;;;;;0.38;0.35;;;;;;;22.51;71.31;100405.13;5010080;28;20077;-65
2023/08/29 10:35:33;;;;;;;0.88;0.32;;;;;;;22.48;71.05;100406.00;5011923;28;20029;-65
2023/08/29 10:38:07;;;;;;;0.47;0.40;;;;;;;22.55;71.36;100405.75;5011974;28;20398;-65
2023/08/29 10:40:35;;;;;;;1.02;0.47;;;;;;;22.69;70.80;100407.28;5011192;28;20128;-65
2023/08/29 10:43:02;;;;;;;0.43;0.35;;;;;;;22.78;68.79;100408.16;5011040;28;20372;-66
2023/08/29 10:45:53;;;;;;;1.20;0.35;;;;;;;22.73;67.07;100397.72;5011617;28;20391;-66
2023/08/29 10:48:29;;;;;;;0.20;0.20;;;;;;;22.80;67.78;100394.72;5007290;28;20041;-65
2023/08/29 10:51:10;;;;;;;0.43;0.22;;;;;;;22.81;68.47;100399.03;4976462;28;20042;-65
2023/08/29 10:53:47;;;;;;;0.27;0.27;;;;;;;22.88;68.61;100400.78;5010052;28;20048;-65
2023/08/29 10:56:13;;;;;;;2.83;0.40;;;;;;;22.82;69.07;100400.56;5011438;28;20049;-65
2023/08/29 10:58:44;;;;;;;0.73;0.40;;;;;;;22.73;68.35;100388.72;5011089;28;20096;-66
2023/08/29 11:01:26;;;;;;;1.15;1.05;;;;;;;22.67;69.07;100383.03;5011503;28;20057;-65
2023/08/29 11:03:52;;;;;;;0.32;0.22;;;;;;;22.55;69.33;100386.53;5010079;28;20033;-65
2023/08/29 11:06:22;;;;;;;1.95;0.50;;;;;;;22.55;69.05;100389.28;5011365;28;20034;-65
2023/08/29 11:08:49;;;;;;;0.30;0.25;;;;;;;22.56;68.74;100381.81;4993619;28;20087;-65
2023/08/29 11:11:18;;;;;;;0.45;0.30;;;;;;;22.45;66.33;100382.19;5010059;28;20041;-65
2023/08/29 11:13:56;;;;;;;0.65;0.38;;;;;;;22.62;65.11;100382.81;4998596;28;20030;-65
2023/08/29 11:16:22;;;;;;;0.85;0.30;;;;;;;22.85;63.04;100374.19;5005394;28;20037;-65
2023/08/29 11:19:18;;;;;;;3.50;0.22;;;;;;;23.02;61.92;100373.56;4993514;28;20037;-65
2023/08/29 11:21:45;;;;;;;0.50;0.40;;;;;;;23.25;62.22;100358.59;4955429;28;20552;-66
2023/08/29 11:24:10;;;;;;;0.50;0.20;;;;;;;23.54;62.82;100358.38;5016546;28;20032;-65